Louis Armstrong New Orleans International Airport New Orleans US
ICAO: KMSY
IATA: MSY
Category: Large
Scheduled Services: Yes

Elevation: 4 ft
TransAlt. 18000 ft.

Airport Communications:
NEW ORLEANS APP/DEP:123.85
ATIS:127.55
CLNC DEL:127.2
GND:121.9
TWR:119.5
UNICOM:122.95

KMSY Zoom In..

If you have problems with the map follow the link
https://www.worldairports.se/pages/airport.php?
ICAO=KMSY

Runways:

(A) RW 01 length 7001 ft width 150 ft
ILS 111.70 / hdg 13

(B) RW 10 length 10104 ft width 150 ft
ILS 109.90 / hdg 103

(C) RW 19 length 7001 ft width 150 ft
LOC 111.70 / hdg 193

(D) RW 28 length 10104 ft width 150 ft
ILS 109.90 / hdg 283

Location; KMSY
Day. 18 / Time. 01.53 Zulu
* Altimeter: 29.84
* Temperature: 23° c. 73.4°f.
* Wind from: 000° Speed 00 kn.
Dewpoint: 22° c.
Visibility: 6 Statute Miles.
Clouds: Few 1000 ft.
Clouds: Overcast 2800 ft.
Conditions: Mist.

KMSY 180153Z 00000KT 6SM BR FEW010 OVC028 23/22 A2984 RMK AO2 SLP107 T02280217 $


Wind - Calm.

 
 
jpsmedia.com for Web Design worldairports.se 2019   terms of use